Log in Register

Login to your account

Username *
Password *
Remember Me

Create an account

Fields marked with an asterisk (*) are required.
Name *
Username *
Password *
Verify password *
Email *
Verify email *

Afin de se conformer aux exigences gouvernementales en cours, l'aéroclub restera fermé durant la période décrétée.

Une permanence téléphonique est assurée au 04 79 54 41 81.

Nous contacter

 Téléphone : +33 (0)4 79 54 41 81

Coordonnées détaillées et accès : cliquez ici

 
LFLB °C
    Ferienhaus Ostsee
[source: ADDS]
METAR
LFLB 042130Z AUTO 32003KT CAVOK 08/03 Q1020 =
TAF LFLB 041100Z 0412/0512 36008KT CAVOK BECMG 0418/0420 18004KT BECMG 0508/0510 36006KT
TAF
TAF LFLB 041100Z 0412/0512 36008KT CAVOK BECMG 0418/0420 18004KT BECMG 0508/0510 36006KT =
SR / SS: 05:09 / 18:08 UTC (Lever/Coucher du soleil le 2020-04-04)
JSN Boot template designed by JoomlaShine.com